Time;durP1;ratioP1;P1;durP2;ratioP2;P2;SDS_P1;SDS_P2;PMS_P1;PMS_P2;Temp;Humidity;BMP_temperature;BMP_pressure;BME280_temperature;BME280_humidity;BME280_pressure;Samples;Min_cycle;Max_cycle;Signal;HPM_P1;HPM_P2
2023/10/24 00:00:50;;;;;;;;;12.50;11.00;;;;;14.41;90.33;100067.22;6158191;23;45291;-66
2023/10/24 00:03:16;;;;;;;;;8.25;7.50;;;;;14.43;90.67;100073.41;6157410;23;45252;-66
2023/10/24 00:05:41;;;;;;;;;8.00;8.00;;;;;14.38;90.58;100059.38;6157976;23;45925;-66
2023/10/24 00:08:06;;;;;;;;;8.25;8.25;;;;;14.42;90.63;100049.31;6185473;23;45376;-66
2023/10/24 00:10:32;;;;;;;;;10.50;9.75;;;;;14.40;90.40;100044.03;6185421;23;45260;-66
2023/10/24 00:12:57;;;;;;;;;8.00;7.50;;;;;14.53;90.78;100062.09;6185467;23;45459;-66
2023/10/24 00:15:22;;;;;;;;;11.75;9.50;;;;;14.43;90.81;100037.59;6183907;23;56656;-66
2023/10/24 00:17:48;;;;;;;;;12.50;11.25;;;;;14.44;90.48;100032.16;6157826;23;46354;-66
2023/10/24 00:20:13;;;;;;;;;11.50;9.25;;;;;14.45;90.83;100039.25;6185372;23;45265;-66
2023/10/24 00:22:38;;;;;;;;;8.75;8.75;;;;;14.50;90.64;100054.22;6184991;23;45388;-66
2023/10/24 00:25:05;;;;;;;;;14.75;11.25;;;;;14.45;90.56;100050.00;6157611;23;45966;-66
2023/10/24 00:27:30;;;;;;;;;10.75;10.25;;;;;14.45;90.87;100052.69;6184911;23;45265;-66
2023/10/24 00:29:55;;;;;;;;;11.25;10.00;;;;;14.48;90.83;100059.69;6184945;23;45315;-66
2023/10/24 00:32:21;;;;;;;;;11.25;10.75;;;;;14.45;91.09;100066.13;6184722;23;45359;-66
2023/10/24 00:34:46;;;;;;;;;10.00;8.50;;;;;14.43;91.20;100051.03;6184911;23;45618;-66
2023/10/24 00:37:11;;;;;;;;;10.00;9.75;;;;;14.45;90.93;100046.47;6184710;23;45307;-66
2023/10/24 00:39:36;;;;;;;;;9.25;9.25;;;;;14.49;90.94;100049.81;6184701;23;45211;-66
2023/10/24 00:42:04;;;;;;;;;9.75;9.75;;;;;14.45;90.98;100052.69;6157223;23;45241;-66
2023/10/24 00:44:31;;;;;;;;;12.25;11.25;;;;;14.48;91.13;100053.44;6183703;23;46237;-66
2023/10/24 00:46:56;;;;;;;;;11.75;11.75;;;;;14.45;91.25;100060.75;6184628;23;45261;-67
2023/10/24 00:49:22;;;;;;;;;10.00;10.00;;;;;14.46;91.08;100045.50;6185024;23;45387;-66
2023/10/24 00:51:47;;;;;;;;;9.50;9.50;;;;;14.44;91.38;100034.84;6158118;23;45453;-66
2023/10/24 00:54:13;;;;;;;;;10.50;10.50;;;;;14.39;91.27;100030.72;6183241;23;45373;-66
2023/10/24 00:56:41;;;;;;;;;13.50;10.25;;;;;14.48;91.35;100043.56;6184765;23;45603;-66
2023/10/24 00:59:07;;;;;;;;;9.00;8.50;;;;;14.45;91.69;100041.09;6185038;23;45287;-66
2023/10/24 01:01:34;;;;;;;;;15.00;11.00;;;;;14.45;91.45;100049.16;6184245;23;45206;-67
2023/10/24 01:04:00;;;;;;;;;14.00;13.50;;;;;14.45;91.53;100041.94;6184018;23;45609;-66
2023/10/24 01:06:26;;;;;;;;;11.50;10.50;;;;;14.45;91.40;100038.41;6183821;23;45237;-66
2023/10/24 01:08:52;;;;;;;;;10.00;10.00;;;;;14.45;91.74;100031.19;6185664;23;45406;-66
2023/10/24 01:11:17;;;;;;;;;9.00;9.00;;;;;14.42;91.92;100023.31;6185984;23;45399;-66
2023/10/24 01:13:43;;;;;;;;;11.50;9.00;;;;;14.28;91.54;99993.75;6158383;23;47133;-66
2023/10/24 01:16:08;;;;;;;;;10.00;10.00;;;;;14.53;91.72;100030.72;6184658;23;45575;-66
2023/10/24 01:18:33;;;;;;;;;11.00;11.00;;;;;14.44;91.67;100020.56;6185472;23;45556;-66
2023/10/24 01:20:59;;;;;;;;;13.25;11.00;;;;;14.51;91.81;100031.78;6185958;23;45351;-66
2023/10/24 01:23:28;;;;;;;;;12.25;12.25;;;;;14.51;92.00;100027.28;6208643;22;46778;-66
2023/10/24 01:25:55;;;;;;;;;15.75;13.00;;;;;14.50;91.67;100032.72;6185216;23;45535;-66
2023/10/24 01:28:21;;;;;;;;;9.00;9.00;;;;;14.43;92.06;100024.19;6186500;23;45182;-66
2023/10/24 01:30:46;;;;;;;;;12.00;12.00;;;;;14.32;91.94;100005.19;6185499;23;45458;-66
2023/10/24 01:33:11;;;;;;;;;10.50;10.50;;;;;14.50;91.76;100043.47;6185606;23;45766;-66
2023/10/24 01:35:37;;;;;;;;;12.25;12.00;;;;;14.51;92.10;100050.59;6185540;23;47238;-66
2023/10/24 01:38:02;;;;;;;;;10.00;10.00;;;;;14.52;91.92;100044.28;6186280;23;45305;-66
2023/10/24 01:40:27;;;;;;;;;16.00;14.75;;;;;14.44;92.05;100026.78;6158820;23;45793;-66
2023/10/24 01:42:53;;;;;;;;;12.50;12.50;;;;;14.55;92.25;100044.06;6186225;23;45299;-66
2023/10/24 01:45:20;;;;;;;;;11.25;10.75;;;;;14.48;92.16;100023.91;6157946;23;45594;-66
2023/10/24 01:47:45;;;;;;;;;11.75;11.25;;;;;14.48;92.29;100024.78;6185796;23;45324;-66
2023/10/24 01:50:11;;;;;;;;;13.00;12.00;;;;;14.56;92.22;100029.69;6186208;23;45312;-66
2023/10/24 01:52:36;;;;;;;;;12.00;11.00;;;;;14.54;92.28;100029.78;6186039;23;46425;-66
2023/10/24 01:55:01;;;;;;;;;14.75;10.50;;;;;14.59;92.39;100030.41;6184447;23;45325;-67
2023/10/24 01:57:27;;;;;;;;;13.25;11.50;;;;;14.56;92.25;100030.53;6184877;23;45239;-66
2023/10/24 01:59:52;;;;;;;;;13.75;10.75;;;;;14.55;92.14;100019.88;6208513;22;45420;-66
2023/10/24 02:02:17;;;;;;;;;14.00;12.50;;;;;14.53;92.43;100019.13;6159290;23;46162;-66
2023/10/24 02:04:43;;;;;;;;;12.50;12.50;;;;;14.54;92.27;100019.03;6185445;23;45225;-66
2023/10/24 02:07:09;;;;;;;;;14.50;12.75;;;;;14.51;92.47;100013.00;6186125;23;45434;-66
2023/10/24 02:09:34;;;;;;;;;14.75;11.75;;;;;14.61;92.20;100022.25;6159059;23;45568;-66
2023/10/24 02:12:00;;;;;;;;;11.25;10.00;;;;;14.62;92.28;100016.78;6185110;23;46989;-66
2023/10/24 02:14:27;;;;;;;;;17.25;13.75;;;;;14.57;92.50;100000.06;6158329;23;45233;-66
2023/10/24 02:16:52;;;;;;;;;11.75;11.75;;;;;14.67;92.34;100007.56;6185745;23;45381;-66
2023/10/24 02:19:17;;;;;;;;;10.00;10.00;;;;;14.63;92.40;99997.03;6158543;23;45455;-67
2023/10/24 02:21:43;;;;;;;;;15.00;13.75;;;;;14.70;92.45;100016.34;6157856;23;46952;-66
2023/10/24 02:24:08;;;;;;;;;11.00;11.00;;;;;14.66;92.17;100009.41;6157621;23;45509;-66
2023/10/24 02:26:33;;;;;;;;;12.50;11.25;;;;;14.74;92.17;100012.47;6185851;23;45540;-66
2023/10/24 02:28:59;;;;;;;;;16.00;14.50;;;;;14.73;92.34;100021.50;6185702;23;45466;-66
2023/10/24 02:31:24;;;;;;;;;12.25;11.25;;;;;14.72;92.43;100021.63;6185519;23;52224;-66
2023/10/24 02:33:49;;;;;;;;;12.50;11.00;;;;;14.61;92.46;100006.13;6184895;23;45376;-66
2023/10/24 02:36:15;;;;;;;;;11.25;11.25;;;;;14.69;92.29;100011.06;6185763;23;48965;-66
2023/10/24 02:38:41;;;;;;;;;10.25;9.75;;;;;14.56;92.65;99986.72;6209007;22;45340;-66
2023/10/24 02:41:06;;;;;;;;;14.75;13.25;;;;;14.72;92.38;100006.34;6185471;23;45320;-66
2023/10/24 02:43:32;;;;;;;;;12.50;10.75;;;;;14.64;92.51;100001.44;6184997;23;45308;-66
2023/10/24 02:46:01;;;;;;;;;9.25;9.00;;;;;14.70;92.71;99999.31;6184664;23;45219;-66
2023/10/24 02:48:26;;;;;;;;;12.00;10.25;;;;;14.67;92.56;100002.19;6185223;23;45262;-66
2023/10/24 02:50:53;;;;;;;;;13.50;13.50;;;;;14.67;92.67;99995.03;6158645;23;47041;-66
2023/10/24 02:53:18;;;;;;;;;11.50;11.50;;;;;14.70;92.42;99999.31;6185456;23;45457;-66
2023/10/24 02:55:43;;;;;;;;;12.00;10.75;;;;;14.71;92.84;100001.06;6185627;23;45652;-67
2023/10/24 02:58:09;;;;;;;;;9.50;9.50;;;;;14.73;92.68;99999.16;6157584;23;45456;-66
2023/10/24 03:00:34;;;;;;;;;10.00;9.50;;;;;14.75;92.56;99998.09;6185367;23;46001;-66
2023/10/24 03:02:59;;;;;;;;;11.75;11.75;;;;;14.79;92.63;99998.78;6185711;23;45305;-66
2023/10/24 03:05:25;;;;;;;;;10.75;9.75;;;;;14.72;92.67;99986.69;6184981;23;45375;-66
2023/10/24 03:07:50;;;;;;;;;10.75;10.75;;;;;14.75;92.67;100003.47;6183972;23;45345;-66
2023/10/24 03:10:16;;;;;;;;;10.50;10.00;;;;;14.75;92.61;99994.53;6184793;23;53802;-66
2023/10/24 03:12:41;;;;;;;;;12.00;12.00;;;;;14.76;92.87;99993.59;6185575;23;45772;-66
2023/10/24 03:15:07;;;;;;;;;11.00;11.00;;;;;14.70;92.86;99977.84;6184530;23;45736;-66
2023/10/24 03:17:32;;;;;;;;;12.00;11.75;;;;;14.77;92.58;99995.31;6185178;23;45174;-66
2023/10/24 03:19:58;;;;;;;;;11.25;11.25;;;;;14.73;92.70;99993.78;6208247;22;48036;-66
2023/10/24 03:22:23;;;;;;;;;11.75;11.00;;;;;14.79;92.71;100004.16;6185241;23;45237;-66
2023/10/24 03:24:49;;;;;;;;;11.25;11.25;;;;;14.80;92.84;100001.38;6185039;23;45914;-66
2023/10/24 03:27:14;;;;;;;;;13.00;13.00;;;;;14.82;93.02;100002.13;6185215;23;45420;-67
2023/10/24 03:29:42;;;;;;;;;10.75;10.75;;;;;14.61;92.83;99960.47;6185181;23;47066;-66
2023/10/24 03:32:08;;;;;;;;;14.25;13.00;;;;;14.85;92.90;100003.78;6184432;23;45509;-66
2023/10/24 03:34:35;;;;;;;;;10.00;8.00;;;;;14.81;92.93;99994.16;6185218;23;45322;-67
2023/10/24 03:37:01;;;;;;;;;10.50;10.50;;;;;14.85;93.12;100000.22;6184994;23;45244;-66
2023/10/24 03:39:28;;;;;;;;;8.00;7.75;;;;;14.83;93.14;100003.00;6184945;23;47154;-66
2023/10/24 03:41:53;;;;;;;;;10.50;10.00;;;;;14.79;93.12;99996.94;6184728;23;45241;-66
2023/10/24 03:44:18;;;;;;;;;10.25;9.25;;;;;14.73;93.06;99989.25;6184142;23;45710;-66
2023/10/24 03:46:44;;;;;;;;;8.75;8.75;;;;;14.86;93.09;100010.88;6184938;23;45510;-66
2023/10/24 03:49:09;;;;;;;;;10.25;10.00;;;;;14.84;93.31;100006.56;6185452;23;45406;-66
2023/10/24 03:51:34;;;;;;;;;10.25;9.50;;;;;14.77;93.17;99993.50;6185325;23;45276;-66
2023/10/24 03:54:00;;;;;;;;;9.25;9.00;;;;;14.72;93.47;99984.00;6183031;23;56581;-66
2023/10/24 03:56:26;;;;;;;;;9.00;9.00;;;;;14.80;93.24;99996.00;6181674;23;51372;-66
2023/10/24 03:58:51;;;;;;;;;10.25;10.25;;;;;14.80;93.27;99998.69;6184333;23;47034;-66
2023/10/24 04:01:17;;;;;;;;;11.50;11.50;;;;;14.88;93.37;100005.41;6182907;23;45416;-66
2023/10/24 04:03:42;;;;;;;;;8.25;7.00;;;;;14.77;93.47;99988.13;6185023;23;45252;-66
2023/10/24 04:06:11;;;;;;;;;8.00;8.00;;;;;14.84;93.41;100001.19;6184567;23;50980;-66
2023/10/24 04:08:37;;;;;;;;;9.00;8.00;;;;;14.79;93.19;99988.03;6158144;23;46287;-66
2023/10/24 04:11:03;;;;;;;;;7.75;7.50;;;;;14.87;93.46;100006.34;6185218;23;45195;-66
2023/10/24 04:13:28;;;;;;;;;8.00;8.00;;;;;14.87;93.43;100009.91;6184694;23;45332;-66
2023/10/24 04:15:58;;;;;;;;;8.00;8.00;;;;;14.88;93.39;100002.72;6157761;23;45465;-66
2023/10/24 04:18:23;;;;;;;;;7.00;7.00;;;;;14.86;93.39;99991.19;6158051;23;47879;-66
2023/10/24 04:20:49;;;;;;;;;8.50;8.00;;;;;14.90;93.58;99998.09;6207707;22;45313;-66
2023/10/24 04:23:14;;;;;;;;;6.75;6.75;;;;;14.89;93.37;99991.88;6185509;23;45281;-66
2023/10/24 04:25:40;;;;;;;;;7.00;7.00;;;;;14.89;93.55;100004.44;6157615;23;45479;-66
2023/10/24 04:28:05;;;;;;;;;8.50;7.25;;;;;14.87;93.48;100001.84;6158393;23;46435;-66
2023/10/24 04:30:30;;;;;;;;;7.50;7.00;;;;;14.87;93.62;99996.47;6183047;23;56541;-66
2023/10/24 04:32:56;;;;;;;;;9.00;7.75;;;;;14.87;93.63;99998.28;6184316;23;45299;-66
2023/10/24 04:35:21;;;;;;;;;8.25;7.00;;;;;14.79;93.64;99988.88;6185085;23;45279;-66
2023/10/24 04:37:47;;;;;;;;;9.00;8.00;;;;;14.79;93.89;99988.88;6185073;23;46466;-66
2023/10/24 04:40:13;;;;;;;;;8.00;8.00;;;;;14.80;93.57;99990.63;6207630;22;45394;-66
2023/10/24 04:42:38;;;;;;;;;8.75;6.00;;;;;14.86;93.73;100002.81;6184576;23;45285;-66
2023/10/24 04:45:04;;;;;;;;;6.00;6.00;;;;;14.86;93.88;99986.69;6186001;23;45231;-66
2023/10/24 04:47:29;;;;;;;;;6.00;6.00;;;;;14.75;93.70;99963.19;6185366;23;45283;-66
2023/10/24 04:49:55;;;;;;;;;8.50;8.50;;;;;14.84;93.86;99995.81;6208853;22;57634;-66
2023/10/24 04:52:20;;;;;;;;;4.50;4.50;;;;;14.77;94.27;99992.63;6209104;22;53768;-66
2023/10/24 04:54:45;;;;;;;;;7.00;6.75;;;;;14.73;93.97;99986.56;6185739;23;45246;-66
2023/10/24 04:57:11;;;;;;;;;7.00;7.00;;;;;14.85;94.01;99995.72;6186048;23;45534;-66
2023/10/24 04:59:51;;;;;;;;;7.00;5.75;;;;;14.86;93.93;99986.69;6134827;23;45577;-66
2023/10/24 05:02:16;;;;;;;;;5.75;5.75;;;;;14.85;93.88;99997.53;6186093;23;45482;-66
2023/10/24 05:04:42;;;;;;;;;8.75;8.00;;;;;14.85;93.90;100002.91;6184507;23;45436;-66
2023/10/24 05:07:08;;;;;;;;;6.00;6.00;;;;;14.87;94.02;100004.53;6185129;23;47423;-66
2023/10/24 05:09:33;;;;;;;;;7.75;7.75;;;;;14.88;94.16;100003.56;6185993;23;45503;-66
2023/10/24 05:11:58;;;;;;;;;5.25;5.25;;;;;14.87;94.17;100001.84;6186445;23;45371;-66
2023/10/24 05:14:24;;;;;;;;;6.00;6.00;;;;;14.82;94.14;99994.06;6184795;23;45415;-66
2023/10/24 05:16:49;;;;;;;;;8.50;6.50;;;;;14.80;94.38;99982.56;6159020;23;47141;-67
2023/10/24 05:19:15;;;;;;;;;5.75;5.00;;;;;14.78;94.12;99981.81;6158138;23;46599;-66
2023/10/24 05:21:40;;;;;;;;;5.50;5.50;;;;;14.89;94.00;99999.94;6185945;23;45689;-66
2023/10/24 05:24:06;;;;;;;;;6.75;5.75;;;;;14.81;94.36;99976.22;6185272;23;45265;-66
2023/10/24 05:26:31;;;;;;;;;5.25;5.25;;;;;14.90;93.98;99998.09;6185064;23;47148;-66
2023/10/24 05:28:57;;;;;;;;;6.50;6.00;;;;;14.84;94.04;99998.50;6185664;23;45411;-66
2023/10/24 05:31:22;;;;;;;;;8.75;6.25;;;;;14.85;93.84;99994.84;6185329;23;45469;-66
2023/10/24 05:33:49;;;;;;;;;6.00;5.75;;;;;14.89;94.26;99993.69;6185504;23;45504;-67
2023/10/24 05:36:18;;;;;;;;;6.25;6.25;;;;;14.77;94.14;99981.91;6158952;23;47632;-67
2023/10/24 05:38:43;;;;;;;;;6.00;6.00;;;;;14.78;94.44;99984.50;6185395;23;45485;-66
2023/10/24 05:41:09;;;;;;;;;5.25;5.25;;;;;14.84;94.30;99969.81;6184974;23;49089;-66
2023/10/24 05:43:36;;;;;;;;;6.00;6.00;;;;;14.86;94.20;99970.56;6185517;23;45430;-66
2023/10/24 05:46:03;;;;;;;;;7.00;6.00;;;;;14.87;94.20;99968.72;6159061;23;47051;-66
2023/10/24 05:48:28;;;;;;;;;6.00;6.00;;;;;14.82;94.33;99955.59;6158878;23;45646;-66
2023/10/24 05:50:54;;;;;;;;;4.00;4.00;;;;;14.88;94.34;99970.47;6185129;23;45324;-66
2023/10/24 05:53:19;;;;;;;;;6.00;6.00;;;;;14.82;94.02;99963.66;6185685;23;45321;-67
2023/10/24 05:55:44;;;;;;;;;6.00;6.00;;;;;14.92;94.36;99986.31;6185446;23;46215;-66
2023/10/24 05:58:10;;;;;;;;;5.00;4.00;;;;;14.94;94.09;99999.66;6185130;23;45414;-66
2023/10/24 06:00:35;;;;;;;;;4.00;4.00;;;;;14.89;94.01;99982.94;6185819;23;45619;-66
2023/10/24 06:03:01;;;;;;;;;6.25;6.00;;;;;14.90;94.03;99984.66;6184926;23;45384;-66
2023/10/24 06:05:26;;;;;;;;;5.50;5.25;;;;;14.92;94.17;99991.69;6157441;23;46947;-66
2023/10/24 06:07:51;;;;;;;;;5.00;5.00;;;;;14.90;94.07;99990.03;6184009;23;51426;-66
2023/10/24 06:10:17;;;;;;;;;7.00;7.00;;;;;14.93;94.35;100001.44;6184197;23;54227;-70
2023/10/24 06:12:42;;;;;;;;;6.00;6.00;;;;;14.93;94.08;100008.66;6185691;23;45462;-69
2023/10/24 06:15:08;;;;;;;;;5.75;5.75;;;;;14.96;94.28;100014.69;6183522;23;57607;-69
2023/10/24 06:17:34;;;;;;;;;5.25;5.25;;;;;14.93;94.33;100001.44;6184245;23;45623;-68
2023/10/24 06:19:59;;;;;;;;;6.25;6.25;;;;;14.96;94.05;100011.16;6185397;23;45416;-68
2023/10/24 06:22:25;;;;;;;;;5.75;5.75;;;;;14.95;93.77;100021.06;6185803;23;45240;-68
2023/10/24 06:24:50;;;;;;;;;5.75;5.75;;;;;14.94;93.92;100026.53;6184148;23;46871;-68
2023/10/24 06:27:16;;;;;;;;;5.00;5.00;;;;;14.92;93.64;100006.94;6185387;23;53064;-69
2023/10/24 06:29:41;;;;;;;;;4.50;4.50;;;;;14.92;93.56;100004.25;6185552;23;45240;-68
2023/10/24 06:32:07;;;;;;;;;5.25;4.00;;;;;14.92;94.09;100015.00;6184104;23;45422;-69
2023/10/24 06:34:33;;;;;;;;;6.75;5.50;;;;;14.93;93.71;100022.94;6185330;23;46187;-69
2023/10/24 06:36:59;;;;;;;;;6.00;5.00;;;;;14.89;93.71;100025.94;6158568;23;45998;-69
2023/10/24 06:39:24;;;;;;;;;5.00;5.00;;;;;14.95;93.68;100036.28;6185727;23;45399;-69
2023/10/24 06:41:50;;;;;;;;;4.50;4.50;;;;;14.85;93.55;100016.31;6184783;23;45675;-69
2023/10/24 06:44:15;;;;;;;;;8.25;6.00;;;;;14.85;93.11;100022.59;6184481;23;51816;-69
2023/10/24 06:46:40;;;;;;;;;6.00;6.00;;;;;14.87;93.31;100027.84;6185852;23;45513;-69
2023/10/24 06:49:05;;;;;;;;;7.50;5.75;;;;;14.91;93.22;100037.47;6185995;23;45357;-69
2023/10/24 06:51:31;;;;;;;;;4.75;4.75;;;;;14.87;93.10;100031.41;6185001;23;45295;-69
2023/10/24 06:53:57;;;;;;;;;6.00;6.00;;;;;14.92;93.02;100050.81;6156848;23;46057;-69
2023/10/24 06:56:22;;;;;;;;;7.00;7.00;;;;;14.93;92.92;100048.97;6185024;23;45925;-69
2023/10/24 06:58:47;;;;;;;;;7.00;5.50;;;;;14.87;92.64;100041.28;6184013;23;45640;-66
2023/10/24 07:01:13;;;;;;;;;5.25;5.25;;;;;14.89;92.75;100053.66;6181889;23;45225;-66
2023/10/24 07:03:38;;;;;;;;;8.00;6.50;;;;;14.90;92.94;100052.72;6182955;23;45710;-66
2023/10/24 07:06:04;;;;;;;;;6.50;5.00;;;;;14.89;92.69;100053.66;6183058;23;45300;-66
2023/10/24 07:08:30;;;;;;;;;6.00;5.50;;;;;14.84;92.67;100061.16;6176481;23;45257;-66
2023/10/24 07:10:55;;;;;;;;;4.75;4.75;;;;;14.76;92.39;100052.69;6180610;23;45263;-66
2023/10/24 07:13:21;;;;;;;;;5.25;5.25;;;;;14.88;92.49;100077.94;6184094;23;45211;-66
2023/10/24 07:15:46;;;;;;;;;4.00;4.00;;;;;14.84;92.31;100074.59;6184368;23;45393;-66
2023/10/24 07:18:13;;;;;;;;;6.00;5.00;;;;;14.87;92.07;100076.19;6185274;23;45221;-66
2023/10/24 07:20:38;;;;;;;;;8.75;7.50;;;;;14.87;92.14;100079.78;6184896;23;45492;-66
2023/10/24 07:23:04;;;;;;;;;6.50;6.00;;;;;14.83;92.07;100083.59;6185134;23;45946;-66
2023/10/24 07:25:30;;;;;;;;;5.00;4.75;;;;;14.83;92.03;100086.28;6184481;23;45390;-66
2023/10/24 07:27:56;;;;;;;;;1.50;1.00;;;;;14.85;91.93;100084.38;6183179;23;45620;-66
2023/10/24 07:30:22;;;;;;;;;3.50;3.50;;;;;14.78;92.00;100083.91;6182772;23;45418;-66
2023/10/24 07:32:48;;;;;;;;;5.00;4.75;;;;;14.74;91.35;100076.97;6182384;23;46529;-66
2023/10/24 07:35:13;;;;;;;;;5.00;3.00;;;;;14.76;91.30;100091.16;6183765;23;45513;-66
2023/10/24 07:37:39;;;;;;;;;6.00;5.00;;;;;14.74;91.54;100093.06;6185010;23;45260;-66
2023/10/24 07:40:05;;;;;;;;;3.00;3.00;;;;;14.74;90.86;100085.03;6182707;23;45731;-66
2023/10/24 07:42:30;;;;;;;;;2.75;2.75;;;;;14.65;90.80;100077.53;6182792;23;46218;-66
2023/10/24 07:44:56;;;;;;;;;2.00;2.00;;;;;14.70;90.98;100077.22;6157884;23;45445;-66
2023/10/24 07:47:22;;;;;;;;;3.00;3.00;;;;;14.72;90.66;100084.25;6157841;23;45446;-66
2023/10/24 07:49:47;;;;;;;;;5.00;2.00;;;;;14.68;91.09;100079.16;6184910;23;45392;-66
2023/10/24 07:52:12;;;;;;;;;3.00;3.00;;;;;14.63;90.45;100074.03;6157409;23;46244;-66
2023/10/24 07:54:38;;;;;;;;;4.00;4.00;;;;;14.70;90.34;100094.22;6184577;23;45382;-66
2023/10/24 07:57:04;;;;;;;;;3.25;2.00;;;;;14.68;90.29;100084.53;6184963;23;45572;-66
2023/10/24 07:59:29;;;;;;;;;3.00;3.00;;;;;14.68;90.46;100087.22;6182483;23;45444;-66
2023/10/24 08:01:55;;;;;;;;;2.00;2.00;;;;;14.72;90.41;100100.38;6183459;23;46843;-66
2023/10/24 08:04:20;;;;;;;;;2.00;2.00;;;;;14.69;90.55;100091.63;6180772;23;45695;-68
2023/10/24 08:06:45;;;;;;;;;3.00;2.00;;;;;14.63;90.59;100085.69;6180954;23;45619;-67
2023/10/24 08:09:11;;;;;;;;;3.25;2.00;;;;;14.61;90.58;100092.94;6182640;23;45618;-67
2023/10/24 08:11:36;;;;;;;;;4.00;3.00;;;;;14.67;90.38;100102.47;6180919;23;45940;-66
2023/10/24 08:14:01;;;;;;;;;2.50;1.00;;;;;14.61;90.27;100103.69;6205698;22;46887;-66
2023/10/24 08:16:26;;;;;;;;;3.00;2.25;;;;;14.62;89.96;100099.19;6206229;22;45475;-66
2023/10/24 08:18:52;;;;;;;;;2.50;1.25;;;;;14.64;89.89;100110.72;6183885;23;45413;-66
2023/10/24 08:21:17;;;;;;;;;3.00;3.00;;;;;14.65;89.81;100107.06;6183187;23;46410;-66
2023/10/24 08:23:42;;;;;;;;;2.75;2.75;;;;;14.63;89.37;100103.59;6182399;23;45603;-66
2023/10/24 08:26:08;;;;;;;;;2.00;2.00;;;;;14.58;89.50;100098.47;6184321;23;45376;-66
2023/10/24 08:28:33;;;;;;;;;2.50;2.00;;;;;14.63;89.43;100108.97;6158063;23;45548;-66
2023/10/24 08:30:58;;;;;;;;;2.25;2.25;;;;;14.65;89.30;100120.50;6156669;23;48188;-66
2023/10/24 08:33:24;;;;;;;;;2.00;2.00;;;;;14.59;89.17;100107.44;6184677;23;45201;-66
2023/10/24 08:35:49;;;;;;;;;3.00;1.50;;;;;14.60;89.63;100111.81;6183166;23;45372;-66
2023/10/24 08:38:14;;;;;;;;;4.00;3.00;;;;;14.64;89.78;100119.63;6183770;23;45269;-66
2023/10/24 08:40:40;;;;;;;;;2.00;2.00;;;;;14.62;89.46;100123.38;6184364;23;45710;-66
2023/10/24 08:43:08;;;;;;;;;1.50;1.50;;;;;14.60;89.70;100118.09;6184134;23;45789;-66
2023/10/24 08:45:35;;;;;;;;;1.00;1.00;;;;;14.60;88.93;100115.41;6183379;23;45305;-66
2023/10/24 08:48:01;;;;;;;;;2.50;2.50;;;;;14.62;89.04;100118.84;6183828;23;45482;-66
2023/10/24 08:50:26;;;;;;;;;1.50;1.00;;;;;14.62;89.00;100108.09;6183725;23;45356;-67
2023/10/24 08:52:51;;;;;;;;;2.25;1.75;;;;;14.68;89.58;100125.66;6183829;23;45400;-66
2023/10/24 08:55:18;;;;;;;;;1.00;1.00;;;;;14.70;89.70;100131.84;6184352;23;50857;-66
2023/10/24 08:57:45;;;;;;;;;1.00;1.00;;;;;14.70;89.40;100129.16;6183517;23;45435;-66
2023/10/24 09:00:14;;;;;;;;;4.25;3.00;;;;;14.64;89.16;100118.75;6183814;23;46048;-66
2023/10/24 09:02:44;;;;;;;;;2.75;2.00;;;;;14.70;89.19;100126.47;6184653;23;45241;-67
2023/10/24 09:05:10;;;;;;;;;2.50;1.00;;;;;14.70;89.44;100129.16;6156513;23;45452;-66
2023/10/24 09:07:36;;;;;;;;;2.00;2.00;;;;;14.69;88.82;100132.78;6180909;23;45255;-66
2023/10/24 09:10:02;;;;;;;;;4.00;2.00;;;;;14.71;88.42;100135.38;6182364;23;45351;-67
2023/10/24 09:12:32;;;;;;;;;2.00;2.00;;;;;14.72;88.54;100132.59;6183988;23;45364;-67
2023/10/24 09:14:58;;;;;;;;;2.00;2.00;;;;;14.72;88.42;100129.94;6183753;23;45581;-66
2023/10/24 09:17:24;;;;;;;;;2.50;1.25;;;;;14.74;88.67;100133.38;6183076;23;45269;-67
2023/10/24 09:19:50;;;;;;;;;1.00;0.00;;;;;14.74;88.36;100133.38;6181531;23;45316;-66
2023/10/24 09:22:17;;;;;;;;;1.25;1.25;;;;;14.77;87.69;100127.81;6183084;23;45466;-67
2023/10/24 09:24:47;;;;;;;;;2.00;1.00;;;;;14.81;87.35;100131.19;6183729;23;45380;-68
2023/10/24 09:27:17;;;;;;;;;2.00;2.00;;;;;14.89;87.54;100144.19;6183368;23;45412;-69
2023/10/24 09:29:43;;;;;;;;;2.25;2.00;;;;;14.91;87.63;100147.63;6156250;23;47521;-68
2023/10/24 09:32:18;;;;;;;;;3.25;1.00;;;;;14.90;86.85;100135.13;6185204;23;45329;-68
2023/10/24 09:34:45;;;;;;;;;1.25;1.25;;;;;14.93;86.85;100134.97;6156761;23;45421;-71
2023/10/24 09:37:10;;;;;;;;;1.25;1.00;;;;;14.91;86.22;100129.69;6181034;23;45660;-68
2023/10/24 09:39:56;;;;;;;;;1.75;1.75;;;;;15.03;87.15;100149.56;6181675;23;45352;-66
2023/10/24 09:42:26;;;;;;;;;2.00;1.00;;;;;15.04;86.78;100140.56;6182162;23;45484;-67
2023/10/24 09:45:04;;;;;;;;;2.00;1.00;;;;;15.07;86.34;100140.38;6183370;23;45325;-67
2023/10/24 09:47:31;;;;;;;;;1.25;1.25;;;;;15.08;86.84;100139.41;6183553;23;45662;-66
2023/10/24 09:49:59;;;;;;;;;2.00;2.00;;;;;15.08;86.93;100139.41;6182940;23;46283;-66
2023/10/24 09:52:28;;;;;;;;;4.75;2.00;;;;;15.06;86.09;100135.94;6183617;23;45639;-66
2023/10/24 09:54:55;;;;;;;;;2.25;1.00;;;;;15.12;86.93;100132.03;6183491;23;45400;-66
2023/10/24 09:57:22;;;;;;;;;1.50;1.00;;;;;15.11;86.36;100133.00;6181877;23;45296;-66
2023/10/24 09:59:56;;;;;;;;;0.25;0.25;;;;;15.16;86.15;100141.63;6184141;23;45994;-66
2023/10/24 10:02:23;;;;;;;;;2.00;1.00;;;;;15.22;85.08;100140.38;6183821;23;45503;-66
2023/10/24 10:04:50;;;;;;;;;1.00;1.00;;;;;15.24;85.12;100144.72;6183482;23;45585;-67
2023/10/24 10:07:17;;;;;;;;;0.25;0.25;;;;;15.26;85.48;100153.56;6157083;23;45457;-66
2023/10/24 10:09:46;;;;;;;;;2.25;1.00;;;;;15.27;84.68;100144.53;6205518;22;46913;-66
2023/10/24 10:12:13;;;;;;;;;2.00;1.00;;;;;15.28;85.23;100138.19;6183803;23;45419;-66
2023/10/24 10:14:57;;;;;;;;;1.00;1.00;;;;;15.31;84.98;100147.91;6179557;23;45504;-66
2023/10/24 10:17:40;;;;;;;;;1.50;1.00;;;;;15.32;85.41;100146.94;6180341;23;45602;-66
2023/10/24 10:20:17;;;;;;;;;1.25;1.00;;;;;15.35;85.57;100146.72;6181153;23;45561;-66
2023/10/24 10:23:08;;;;;;;;;1.00;1.00;;;;;15.40;86.11;100152.69;6182187;23;45363;-66
2023/10/24 10:25:40;;;;;;;;;1.00;1.00;;;;;15.42;85.24;100147.22;6183304;23;45312;-66
2023/10/24 10:28:35;;;;;;;;;1.00;1.00;;;;;15.46;85.04;100141.56;6182580;23;45341;-66
2023/10/24 10:31:14;;;;;;;;;1.50;1.00;;;;;15.50;84.91;100143.13;6169136;23;47081;-67
2023/10/24 10:33:40;;;;;;;;;1.00;1.00;;;;;15.46;84.98;100140.72;6182588;23;45348;-66
2023/10/24 10:36:09;;;;;;;;;4.75;2.00;;;;;15.46;85.38;100129.94;6184339;23;45394;-66
2023/10/24 10:38:37;;;;;;;;;1.00;1.00;;;;;15.59;84.53;100143.50;6153684;23;45671;-66
2023/10/24 10:41:23;;;;;;;;;1.75;1.75;;;;;15.62;83.94;100144.16;6181509;23;45332;-66
2023/10/24 10:43:59;;;;;;;;;2.00;2.00;;;;;15.63;83.90;100140.50;6179964;23;45324;-66
2023/10/24 10:46:27;;;;;;;;;3.00;1.25;;;;;15.66;83.62;100134.94;6180182;23;45517;-66
2023/10/24 10:48:59;;;;;;;;;3.75;3.00;;;;;15.72;83.50;100139.06;6179387;23;45524;-66
2023/10/24 10:51:36;;;;;;;;;1.00;1.00;;;;;15.70;83.17;100136.47;6180885;23;45448;-66
2023/10/24 10:54:20;;;;;;;;;1.00;1.00;;;;;15.77;82.90;100136.09;6180236;23;45541;-66
2023/10/24 10:56:48;;;;;;;;;1.50;1.00;;;;;15.69;82.97;100118.59;6152860;23;45426;-66
2023/10/24 10:59:31;;;;;;;;;2.00;2.00;;;;;15.84;83.53;100134.78;6177029;23;45650;-66
2023/10/24 11:02:23;;;;;;;;;3.00;2.00;;;;;15.84;82.60;100141.00;6181163;23;46593;-66
2023/10/24 11:04:48;;;;;;;;;1.00;1.00;;;;;15.86;81.42;100125.63;6179226;23;45752;-66
2023/10/24 11:07:14;;;;;;;;;1.00;1.00;;;;;15.82;81.79;100124.09;6176350;23;45738;-66
2023/10/24 11:09:40;;;;;;;;;1.00;1.00;;;;;15.91;81.53;100139.63;6179676;23;45865;-66
2023/10/24 11:12:21;;;;;;;;;2.25;2.25;;;;;15.95;80.91;100139.44;6157035;23;47080;-66
2023/10/24 11:15:10;;;;;;;;;3.00;2.00;;;;;15.97;80.82;100135.72;6182445;23;45190;-67
2023/10/24 11:17:36;;;;;;;;;0.75;0.75;;;;;15.90;80.40;100123.59;6181700;23;45824;-66
2023/10/24 11:20:05;;;;;;;;;2.25;1.00;;;;;16.01;79.65;100129.16;6157720;23;45555;-67